Time;durP1;ratioP1;P1;durP2;ratioP2;P2;SDS_P1;SDS_P2;PMS_P1;PMS_P2;Temp;Humidity;BMP_temperature;BMP_pressure;BME280_temperature;BME280_humidity;BME280_pressure;Samples;Min_cycle;Max_cycle;Signal;HPM_P1;HPM_P2
2022/05/14 00:01:45;;;;;;;5.90;4.03;;;;;;;;;;5043513;28;20029;-50
2022/05/14 00:04:10;;;;;;;5.40;3.90;;;;;;;;;;5041763;28;20294;-51
2022/05/14 00:06:35;;;;;;;5.53;4.13;;;;;;;;;;5042531;28;20021;-50
2022/05/14 00:09:04;;;;;;;5.47;4.00;;;;;;;;;;5040149;28;20021;-49
2022/05/14 00:14:13;;;;;;;5.30;4.22;;;;;;;;;;5043198;28;20027;-50
2022/05/14 00:16:39;;;;;;;5.10;3.80;;;;;;;;;;5037810;28;20044;-50
2022/05/14 00:19:05;;;;;;;5.13;3.97;;;;;;;;;;5038815;28;20008;-51
2022/05/14 00:21:32;;;;;;;5.82;3.80;;;;;;;;;;5043274;28;20028;-51
2022/05/14 00:23:58;;;;;;;6.40;4.35;;;;;;;;;;5041752;28;20029;-50
2022/05/14 00:26:23;;;;;;;5.38;3.90;;;;;;;;;;5045829;28;20499;-51
2022/05/14 00:28:49;;;;;;;4.93;3.95;;;;;;;;;;5044159;28;20088;-51
2022/05/14 00:31:14;;;;;;;5.10;3.57;;;;;;;;;;5038463;28;20128;-51
2022/05/14 00:33:39;;;;;;;5.10;3.73;;;;;;;;;;5039479;28;20879;-51
2022/05/14 00:36:05;;;;;;;4.30;3.80;;;;;;;;;;5039722;28;20550;-51
2022/05/14 00:38:30;;;;;;;4.88;3.85;;;;;;;;;;5037948;28;20044;-50
2022/05/14 00:41:02;;;;;;;5.63;3.90;;;;;;;;;;5042020;28;20401;-51
2022/05/14 00:43:28;;;;;;;6.93;4.45;;;;;;;;;;5041810;28;20025;-52
2022/05/14 00:45:54;;;;;;;5.78;4.00;;;;;;;;;;5044155;28;20104;-51
2022/05/14 00:48:19;;;;;;;5.90;4.32;;;;;;;;;;5038387;28;20096;-50
2022/05/14 00:50:46;;;;;;;5.53;3.93;;;;;;;;;;5041783;28;20123;-51
2022/05/14 00:53:13;;;;;;;5.43;4.15;;;;;;;;;;5038465;28;20358;-51
2022/05/14 00:55:38;;;;;;;6.20;4.00;;;;;;;;;;5040552;28;20181;-51
2022/05/14 00:58:04;;;;;;;5.13;3.97;;;;;;;;;;5039369;28;20104;-51
2022/05/14 01:00:30;;;;;;;6.68;4.22;;;;;;;;;;5034828;28;20017;-51
2022/05/14 01:02:55;;;;;;;4.40;3.97;;;;;;;;;;5038046;28;20412;-51
2022/05/14 01:05:20;;;;;;;5.30;4.27;;;;;;;;;;5043384;28;20036;-51
2022/05/14 01:07:46;;;;;;;5.97;3.80;;;;;;;;;;5041171;28;20972;-51
2022/05/14 01:10:11;;;;;;;6.18;4.28;;;;;;;;;;5040091;28;20082;-51
2022/05/14 01:12:37;;;;;;;6.07;3.95;;;;;;;;;;5044587;28;20745;-50
2022/05/14 01:15:08;;;;;;;4.78;3.95;;;;;;;;;;5039735;28;20031;-50
2022/05/14 01:17:33;;;;;;;5.07;3.90;;;;;;;;;;5039247;28;20111;-49
2022/05/14 01:19:58;;;;;;;6.13;3.92;;;;;;;;;;5042318;28;20103;-50
2022/05/14 01:22:23;;;;;;;4.87;3.70;;;;;;;;;;5037476;28;20013;-50
2022/05/14 01:27:45;;;;;;;5.88;4.25;;;;;;;;;;5038818;28;20024;-50
2022/05/14 01:30:10;;;;;;;5.35;4.35;;;;;;;;;;5040901;28;20017;-49
2022/05/14 01:32:35;;;;;;;5.22;3.97;;;;;;;;;;5041168;28;20032;-48
2022/05/14 01:35:01;;;;;;;5.70;3.90;;;;;;;;;;5042828;28;20009;-49
2022/05/14 01:37:26;;;;;;;5.23;4.00;;;;;;;;;;5037793;28;20484;-50
2022/05/14 01:39:51;;;;;;;5.47;3.93;;;;;;;;;;5039187;28;20267;-50
2022/05/14 01:42:17;;;;;;;4.47;3.75;;;;;;;;;;5040733;28;20263;-49
2022/05/14 01:44:43;;;;;;;6.93;4.60;;;;;;;;;;5044354;28;20476;-50
2022/05/14 01:47:08;;;;;;;4.93;3.83;;;;;;;;;;5038575;28;20263;-50
2022/05/14 01:49:34;;;;;;;5.18;4.05;;;;;;;;;;5038180;28;20074;-50
2022/05/14 01:51:59;;;;;;;6.07;4.20;;;;;;;;;;5037479;28;20114;-49
2022/05/14 01:54:24;;;;;;;6.97;4.60;;;;;;;;;;5043250;28;20990;-50
2022/05/14 01:56:49;;;;;;;4.63;3.77;;;;;;;;;;5039551;28;20267;-50
2022/05/14 01:59:15;;;;;;;5.43;4.10;;;;;;;;;;5040768;28;20013;-50
2022/05/14 02:01:40;;;;;;;4.70;3.80;;;;;;;;;;5039059;28;20013;-50
2022/05/14 02:04:06;;;;;;;4.73;3.80;;;;;;;;;;5040253;28;20013;-50
2022/05/14 02:06:32;;;;;;;6.35;4.13;;;;;;;;;;5038334;28;20792;-50
2022/05/14 02:08:57;;;;;;;5.30;4.05;;;;;;;;;;5041368;28;20057;-50
2022/05/14 02:11:22;;;;;;;4.68;4.03;;;;;;;;;;5041198;28;20055;-50
2022/05/14 02:13:48;;;;;;;4.47;3.60;;;;;;;;;;5041997;28;20027;-50
2022/05/14 02:16:13;;;;;;;4.63;3.97;;;;;;;;;;5034570;28;20017;-50
2022/05/14 02:18:38;;;;;;;5.72;4.10;;;;;;;;;;5037598;28;20021;-49
2022/05/14 02:21:04;;;;;;;4.57;3.80;;;;;;;;;;5033963;28;20138;-50
2022/05/14 02:23:29;;;;;;;5.03;4.18;;;;;;;;;;5038217;28;20048;-49
2022/05/14 02:25:54;;;;;;;6.32;4.35;;;;;;;;;;5040258;28;20013;-51
2022/05/14 02:28:20;;;;;;;5.37;4.20;;;;;;;;;;5035397;28;20428;-50
2022/05/14 02:30:45;;;;;;;4.53;4.07;;;;;;;;;;5039691;28;20198;-49
2022/05/14 02:33:10;;;;;;;5.23;3.80;;;;;;;;;;5037209;28;20526;-49
2022/05/14 02:35:36;;;;;;;5.30;4.20;;;;;;;;;;5038979;28;20309;-49
2022/05/14 02:38:01;;;;;;;5.37;4.73;;;;;;;;;;5036865;28;20633;-50
2022/05/14 02:40:26;;;;;;;4.70;3.83;;;;;;;;;;5039276;28;20263;-50
2022/05/14 02:42:52;;;;;;;4.70;4.23;;;;;;;;;;5038624;28;20563;-50
2022/05/14 02:45:17;;;;;;;4.63;3.88;;;;;;;;;;5039441;28;20534;-49
2022/05/14 02:47:42;;;;;;;4.45;4.00;;;;;;;;;;5039405;28;20508;-49
2022/05/14 02:50:08;;;;;;;5.40;3.88;;;;;;;;;;5039480;28;20132;-49
2022/05/14 02:52:33;;;;;;;5.03;3.88;;;;;;;;;;5039627;28;20021;-49
2022/05/14 02:54:58;;;;;;;5.72;4.20;;;;;;;;;;5043117;28;20021;-51
2022/05/14 02:57:24;;;;;;;6.03;4.30;;;;;;;;;;5040810;28;20013;-49
2022/05/14 02:59:49;;;;;;;7.07;4.07;;;;;;;;;;5037441;28;20266;-49
2022/05/14 03:02:14;;;;;;;4.90;4.00;;;;;;;;;;5039441;28;20421;-50
2022/05/14 03:04:40;;;;;;;5.00;3.92;;;;;;;;;;5038817;28;20028;-49
2022/05/14 03:07:06;;;;;;;6.03;4.45;;;;;;;;;;5034185;28;20021;-50
2022/05/14 03:09:32;;;;;;;6.30;4.25;;;;;;;;;;5039882;28;20057;-49
2022/05/14 03:11:57;;;;;;;5.63;4.18;;;;;;;;;;5035601;28;20025;-50
2022/05/14 03:14:23;;;;;;;4.43;4.03;;;;;;;;;;5041464;28;20488;-49
2022/05/14 03:16:48;;;;;;;5.78;4.10;;;;;;;;;;5036587;28;20519;-49
2022/05/14 03:19:13;;;;;;;5.53;4.22;;;;;;;;;;5039679;28;20138;-51
2022/05/14 03:21:38;;;;;;;5.00;4.33;;;;;;;;;;5041368;28;20056;-51
2022/05/14 03:24:04;;;;;;;5.50;4.25;;;;;;;;;;5039809;28;20059;-50
2022/05/14 03:26:29;;;;;;;6.35;4.30;;;;;;;;;;5036325;28;20453;-51
2022/05/14 03:28:54;;;;;;;4.72;4.05;;;;;;;;;;5040387;28;20191;-51
2022/05/14 03:31:19;;;;;;;4.70;4.30;;;;;;;;;;5035933;28;20580;-50
2022/05/14 03:33:45;;;;;;;4.87;3.93;;;;;;;;;;5037338;28;20511;-51
2022/05/14 03:36:10;;;;;;;5.90;4.20;;;;;;;;;;5038779;28;20560;-51
2022/05/14 03:38:36;;;;;;;4.87;4.30;;;;;;;;;;5036489;28;20090;-50
2022/05/14 03:41:01;;;;;;;4.90;4.10;;;;;;;;;;5040311;28;20104;-51
2022/05/14 03:43:26;;;;;;;4.95;3.75;;;;;;;;;;5035589;28;20412;-50
2022/05/14 03:45:52;;;;;;;4.77;4.00;;;;;;;;;;5040401;28;20120;-50
2022/05/14 03:48:17;;;;;;;5.47;4.45;;;;;;;;;;5035928;28;20044;-48
2022/05/14 03:50:42;;;;;;;5.93;4.37;;;;;;;;;;5040437;28;20416;-49
2022/05/14 03:53:07;;;;;;;4.90;4.13;;;;;;;;;;5041566;28;20055;-50
2022/05/14 03:55:33;;;;;;;6.28;4.28;;;;;;;;;;5042580;28;20325;-51
2022/05/14 03:57:58;;;;;;;4.65;4.20;;;;;;;;;;5042745;28;20025;-50
2022/05/14 04:00:23;;;;;;;6.80;4.63;;;;;;;;;;5043196;28;20017;-50
2022/05/14 04:02:49;;;;;;;5.43;4.10;;;;;;;;;;5039430;28;21028;-51
2022/05/14 04:05:14;;;;;;;5.43;3.85;;;;;;;;;;5041581;28;20461;-52
2022/05/14 04:07:43;;;;;;;5.38;4.35;;;;;;;;;;5037523;28;20017;-52
2022/05/14 04:10:09;;;;;;;5.38;4.13;;;;;;;;;;5039174;28;20021;-52
2022/05/14 04:12:34;;;;;;;6.00;4.05;;;;;;;;;;5038016;28;20021;-52
2022/05/14 04:14:59;;;;;;;5.80;4.50;;;;;;;;;;5045537;28;20021;-52
2022/05/14 04:17:25;;;;;;;5.40;4.03;;;;;;;;;;5037958;28;20020;-52
2022/05/14 04:19:50;;;;;;;6.05;4.15;;;;;;;;;;5037128;28;20052;-52
2022/05/14 04:22:15;;;;;;;6.23;4.20;;;;;;;;;;5040572;28;20043;-51
2022/05/14 04:24:41;;;;;;;5.20;4.20;;;;;;;;;;5039653;28;20259;-51
2022/05/14 04:27:06;;;;;;;5.70;4.40;;;;;;;;;;5042345;28;20009;-52
2022/05/14 04:29:31;;;;;;;6.47;4.65;;;;;;;;;;5040692;28;20044;-52
2022/05/14 04:31:56;;;;;;;5.00;3.80;;;;;;;;;;5039447;28;20053;-51
2022/05/14 04:34:21;;;;;;;5.97;3.97;;;;;;;;;;5038576;28;20180;-52
2022/05/14 04:36:47;;;;;;;4.47;3.70;;;;;;;;;;5039923;28;20049;-52
2022/05/14 04:39:12;;;;;;;4.53;4.00;;;;;;;;;;5045693;28;20025;-52
2022/05/14 04:41:37;;;;;;;7.97;3.73;;;;;;;;;;5041074;28;20274;-52
2022/05/14 04:44:03;;;;;;;5.32;4.25;;;;;;;;;;5042693;28;20804;-50
2022/05/14 04:46:28;;;;;;;7.35;4.07;;;;;;;;;;5043836;28;20032;-52
2022/05/14 04:48:53;;;;;;;6.55;4.03;;;;;;;;;;5037330;28;20228;-53
2022/05/14 04:51:19;;;;;;;5.00;3.97;;;;;;;;;;5037676;28;20040;-50
2022/05/14 04:53:44;;;;;;;5.25;4.45;;;;;;;;;;5039357;28;20028;-51
2022/05/14 04:56:09;;;;;;;6.30;4.50;;;;;;;;;;5032099;28;20512;-51
2022/05/14 04:58:34;;;;;;;6.33;4.00;;;;;;;;;;5035590;28;20496;-50
2022/05/14 05:00:59;;;;;;;5.77;3.90;;;;;;;;;;5037748;28;20527;-51
2022/05/14 05:03:27;;;;;;;8.07;4.33;;;;;;;;;;5027435;28;20497;-51
2022/05/14 05:05:53;;;;;;;5.45;4.05;;;;;;;;;;5028915;28;20259;-50
2022/05/14 05:08:19;;;;;;;5.32;4.07;;;;;;;;;;5037282;28;20048;-51
2022/05/14 05:10:44;;;;;;;4.65;4.20;;;;;;;;;;5052143;28;20021;-52
2022/05/14 05:13:10;;;;;;;6.50;4.55;;;;;;;;;;5049502;28;20088;-53
2022/05/14 05:15:36;;;;;;;6.93;4.40;;;;;;;;;;5034706;28;20492;-52
2022/05/14 05:18:01;;;;;;;6.30;4.17;;;;;;;;;;5037048;28;20029;-50
2022/05/14 05:20:26;;;;;;;5.38;4.05;;;;;;;;;;5039979;28;20789;-52
2022/05/14 05:22:52;;;;;;;9.13;4.50;;;;;;;;;;5039858;28;20407;-51
2022/05/14 05:25:17;;;;;;;6.53;4.47;;;;;;;;;;5040460;28;20017;-49
2022/05/14 05:27:42;;;;;;;4.40;4.00;;;;;;;;;;5043341;28;20021;-52
2022/05/14 05:30:08;;;;;;;5.47;3.90;;;;;;;;;;5036773;28;20032;-51
2022/05/14 05:32:33;;;;;;;7.55;4.43;;;;;;;;;;5038612;28;20983;-52
2022/05/14 05:34:58;;;;;;;4.93;4.18;;;;;;;;;;5037034;28;20515;-52
2022/05/14 05:37:24;;;;;;;7.13;4.60;;;;;;;;;;5041441;28;21342;-50
2022/05/14 05:39:49;;;;;;;5.00;4.00;;;;;;;;;;5045154;28;20089;-50
2022/05/14 05:42:14;;;;;;;6.93;4.60;;;;;;;;;;5037156;28;20898;-50
2022/05/14 05:44:39;;;;;;;4.87;4.20;;;;;;;;;;5035854;28;20313;-50
2022/05/14 05:47:06;;;;;;;5.57;4.53;;;;;;;;;;5038387;28;20017;-50
2022/05/14 05:49:31;;;;;;;5.78;3.83;;;;;;;;;;5044511;28;20027;-51
2022/05/14 05:51:57;;;;;;;6.05;4.75;;;;;;;;;;5037232;28;20040;-47
2022/05/14 05:57:06;;;;;;;5.55;4.10;;;;;;;;;;5035794;28;20853;-50
2022/05/14 05:59:32;;;;;;;7.22;3.92;;;;;;;;;;5031325;28;20025;-52
2022/05/14 06:01:58;;;;;;;6.95;4.07;;;;;;;;;;5039242;28;20016;-51
2022/05/14 06:04:23;;;;;;;6.33;4.00;;;;;;;;;;5036264;28;20393;-51
2022/05/14 06:06:48;;;;;;;4.77;4.20;;;;;;;;;;5041627;28;20458;-47
2022/05/14 06:09:14;;;;;;;4.73;3.90;;;;;;;;;;5032509;28;20268;-51
2022/05/14 06:11:41;;;;;;;5.68;4.13;;;;;;;;;;5036841;28;20037;-51
2022/05/14 06:14:07;;;;;;;6.88;4.10;;;;;;;;;;5034490;28;20477;-51
2022/05/14 06:16:32;;;;;;;5.68;4.10;;;;;;;;;;5028476;28;20595;-51
2022/05/14 06:18:57;;;;;;;5.32;4.47;;;;;;;;;;5034976;28;20033;-49
2022/05/14 06:21:23;;;;;;;6.35;4.03;;;;;;;;;;5039807;28;20114;-51
2022/05/14 06:23:49;;;;;;;7.07;4.40;;;;;;;;;;5038067;28;20464;-51
2022/05/14 06:26:14;;;;;;;6.18;4.22;;;;;;;;;;5037138;28;20198;-50
2022/05/14 06:28:39;;;;;;;5.67;4.20;;;;;;;;;;5037475;28;20507;-51
2022/05/14 06:31:04;;;;;;;6.33;4.10;;;;;;;;;;5036676;28;20394;-50
2022/05/14 06:33:32;;;;;;;6.35;4.43;;;;;;;;;;5040356;28;20068;-55
2022/05/14 06:35:58;;;;;;;6.10;4.20;;;;;;;;;;5039547;28;20021;-51
2022/05/14 06:38:23;;;;;;;7.35;4.63;;;;;;;;;;5036575;28;20716;-49
2022/05/14 06:40:48;;;;;;;5.03;3.77;;;;;;;;;;5042947;28;20098;-51
2022/05/14 06:43:17;;;;;;;5.30;4.53;;;;;;;;;;5041004;28;20271;-52
2022/05/14 06:45:43;;;;;;;5.00;4.35;;;;;;;;;;5038667;28;20052;-52
2022/05/14 06:48:08;;;;;;;6.05;4.45;;;;;;;;;;5036712;28;20667;-52
2022/05/14 06:50:33;;;;;;;6.67;4.20;;;;;;;;;;5040418;28;20107;-50
2022/05/14 06:53:00;;;;;;;7.72;5.35;;;;;;;;;;5041489;28;20020;-50
2022/05/14 06:55:25;;;;;;;8.38;5.80;;;;;;;;;;5040007;28;20491;-51
2022/05/14 06:57:51;;;;;;;7.50;5.72;;;;;;;;;;5036448;28;20071;-52
2022/05/14 07:00:16;;;;;;;7.43;6.17;;;;;;;;;;5040839;28;20104;-52
2022/05/14 07:02:41;;;;;;;8.20;6.10;;;;;;;;;;5037362;28;20049;-52
2022/05/14 07:07:51;;;;;;;10.70;6.53;;;;;;;;;;5036473;28;20560;-51
2022/05/14 07:10:16;;;;;;;10.10;6.87;;;;;;;;;;5034707;28;20021;-53
2022/05/14 07:12:42;;;;;;;9.20;6.90;;;;;;;;;;5037275;28;20005;-53
2022/05/14 07:15:07;;;;;;;8.85;6.22;;;;;;;;;;5040176;28;21147;-52
2022/05/14 07:17:32;;;;;;;8.63;6.53;;;;;;;;;;5039679;28;20029;-52
2022/05/14 07:19:57;;;;;;;9.43;6.37;;;;;;;;;;5039591;28;20163;-52
2022/05/14 07:22:23;;;;;;;9.77;6.23;;;;;;;;;;5036706;28;20271;-54
2022/05/14 07:24:48;;;;;;;10.68;6.72;;;;;;;;;;5044161;28;20020;-54
2022/05/14 07:27:14;;;;;;;8.20;6.53;;;;;;;;;;5039104;28;20021;-52
2022/05/14 07:29:42;;;;;;;8.18;6.35;;;;;;;;;;5040039;28;20276;-51
2022/05/14 07:32:11;;;;;;;8.02;6.45;;;;;;;;;;5045626;28;20045;-52
2022/05/14 07:34:37;;;;;;;8.77;6.00;;;;;;;;;;5037257;28;20021;-54
2022/05/14 07:37:06;;;;;;;7.72;6.03;;;;;;;;;;5039294;28;20039;-52
2022/05/14 07:39:39;;;;;;;13.13;6.75;;;;;;;;;;5038463;28;20012;-52
2022/05/14 07:42:04;;;;;;;10.75;6.57;;;;;;;;;;5037086;28;20025;-51
2022/05/14 07:44:31;;;;;;;10.13;6.30;;;;;;;;;;5039802;28;20028;-53
2022/05/14 07:46:56;;;;;;;10.05;6.63;;;;;;;;;;5027116;28;20120;-52
2022/05/14 07:49:21;;;;;;;8.98;6.22;;;;;;;;;;5044016;28;21001;-51
2022/05/14 07:51:47;;;;;;;7.80;6.40;;;;;;;;;;5036243;28;20048;-52
2022/05/14 07:54:12;;;;;;;9.32;6.80;;;;;;;;;;5039613;28;20029;-53
2022/05/14 07:56:38;;;;;;;7.87;6.23;;;;;;;;;;5040416;28;20031;-53
2022/05/14 07:59:03;;;;;;;9.68;6.32;;;;;;;;;;5040269;28;20119;-53
2022/05/14 08:01:28;;;;;;;9.33;6.03;;;;;;;;;;5041940;28;20100;-52
2022/05/14 08:03:54;;;;;;;8.73;5.97;;;;;;;;;;5044191;28;20809;-53
2022/05/14 08:06:19;;;;;;;7.13;6.33;;;;;;;;;;5042067;28;20408;-54
2022/05/14 08:08:44;;;;;;;10.10;6.10;;;;;;;;;;5043342;28;20771;-51
2022/05/14 08:11:10;;;;;;;7.27;6.00;;;;;;;;;;5038781;28;20041;-51
2022/05/14 08:13:35;;;;;;;10.35;6.53;;;;;;;;;;5032270;28;20247;-52
2022/05/14 08:16:00;;;;;;;10.23;6.30;;;;;;;;;;5041104;28;21499;-52
2022/05/14 08:18:26;;;;;;;10.95;6.50;;;;;;;;;;5035023;28;20027;-52
2022/05/14 08:20:51;;;;;;;7.70;6.47;;;;;;;;;;5037771;28;20036;-52
2022/05/14 08:26:00;;;;;;;8.15;5.90;;;;;;;;;;5043419;28;20097;-50
2022/05/14 08:28:26;;;;;;;7.90;6.20;;;;;;;;;;5039953;28;20037;-52
2022/05/14 08:30:51;;;;;;;7.80;6.70;;;;;;;;;;5038358;28;20099;-51
2022/05/14 08:33:17;;;;;;;8.13;6.57;;;;;;;;;;5039972;28;20519;-52
2022/05/14 08:35:42;;;;;;;7.27;5.70;;;;;;;;;;5038230;28;20036;-51
2022/05/14 08:38:09;;;;;;;9.25;6.13;;;;;;;;;;5043331;28;20511;-50
2022/05/14 08:40:38;;;;;;;8.82;6.25;;;;;;;;;;5041371;28;20104;-52
2022/05/14 08:43:04;;;;;;;10.50;6.30;;;;;;;;;;5037780;28;20036;-52
2022/05/14 08:45:30;;;;;;;9.10;6.13;;;;;;;;;;5042219;28;20032;-51
2022/05/14 08:47:59;;;;;;;9.35;6.05;;;;;;;;;;5036153;28;20028;-53
2022/05/14 08:50:30;;;;;;;9.63;5.93;;;;;;;;;;5043404;28;20025;-51
2022/05/14 08:53:00;;;;;;;8.57;6.13;;;;;;;;;;5035625;28;20037;-52
2022/05/14 08:55:25;;;;;;;7.60;5.80;;;;;;;;;;5026753;28;20017;-52
2022/05/14 08:58:00;;;;;;;9.07;6.43;;;;;;;;;;5037992;28;20032;-52
2022/05/14 09:00:25;;;;;;;8.68;5.82;;;;;;;;;;5042455;28;21069;-51
2022/05/14 09:02:51;;;;;;;6.83;5.70;;;;;;;;;;5038803;28;20012;-51
2022/05/14 09:05:26;;;;;;;7.82;5.85;;;;;;;;;;5043159;28;20244;-51
2022/05/14 09:07:51;;;;;;;7.80;5.90;;;;;;;;;;5041549;28;20017;-51
2022/05/14 09:10:26;;;;;;;9.70;6.20;;;;;;;;;;5041617;28;20021;-53
2022/05/14 09:12:52;;;;;;;8.38;5.50;;;;;;;;;;5035926;28;20435;-54
2022/05/14 09:15:18;;;;;;;8.27;5.57;;;;;;;;;;5044034;28;20013;-51
2022/05/14 09:17:43;;;;;;;7.10;5.80;;;;;;;;;;5039160;28;20016;-52
2022/05/14 09:20:08;;;;;;;8.90;6.00;;;;;;;;;;5042821;28;20259;-52
2022/05/14 09:22:40;;;;;;;6.22;5.60;;;;;;;;;;5040119;28;20015;-51
2022/05/14 09:25:19;;;;;;;6.78;6.07;;;;;;;;;;5041143;28;20028;-52
2022/05/14 09:28:01;;;;;;;8.57;6.05;;;;;;;;;;5039212;28;20009;-53
2022/05/14 09:30:27;;;;;;;7.45;5.78;;;;;;;;;;5046520;28;20045;-53
2022/05/14 09:32:52;;;;;;;7.38;5.57;;;;;;;;;;5043975;28;20028;-52
2022/05/14 09:35:19;;;;;;;6.17;5.57;;;;;;;;;;5044041;28;20020;-53
2022/05/14 09:37:44;;;;;;;8.75;6.10;;;;;;;;;;5040001;28;20543;-53
2022/05/14 09:40:28;;;;;;;7.00;6.00;;;;;;;;;;5040445;28;20613;-51
2022/05/14 09:42:54;;;;;;;7.75;6.03;;;;;;;;;;5042110;28;20032;-52
2022/05/14 09:45:20;;;;;;;7.57;5.82;;;;;;;;;;5036454;28;20031;-53
2022/05/14 09:47:46;;;;;;;9.18;6.15;;;;;;;;;;5036435;28;20206;-51
2022/05/14 09:50:16;;;;;;;8.97;6.33;;;;;;;;;;5038327;28;20489;-52
2022/05/14 09:52:41;;;;;;;10.25;6.40;;;;;;;;;;5040822;28;20029;-52
2022/05/14 09:55:08;;;;;;;7.82;5.90;;;;;;;;;;5037819;28;20078;-52
2022/05/14 09:57:33;;;;;;;9.25;6.38;;;;;;;;;;5039268;28;20676;-52
2022/05/14 10:00:20;;;;;;;10.33;6.23;;;;;;;;;;5042102;28;20024;-52
2022/05/14 10:03:01;;;;;;;11.85;6.43;;;;;;;;;;5038255;28;20032;-52
2022/05/14 10:06:05;;;;;;;10.15;6.60;;;;;;;;;;5040342;28;20013;-52
2022/05/14 10:08:48;;;;;;;9.77;7.00;;;;;;;;;;5017954;28;20025;-52
2022/05/14 10:11:14;;;;;;;10.05;7.18;;;;;;;;;;5019177;28;20037;-51
2022/05/14 10:13:39;;;;;;;16.33;12.02;;;;;;;;;;5023151;28;20025;-53
2022/05/14 10:16:09;;;;;;;18.60;15.97;;;;;;;;;;5029860;28;20004;-52
2022/05/14 10:18:46;;;;;;;30.13;26.75;;;;;;;;;;5039884;28;20507;-54
2022/05/14 10:21:12;;;;;;;19.38;17.27;;;;;;;;;;5038118;28;20071;-54
2022/05/14 10:26:52;;;;;;;11.50;8.93;;;;;;;;;;5043145;28;20020;-52
2022/05/14 10:29:31;;;;;;;11.57;7.97;;;;;;;;;;5031111;28;20045;-53
2022/05/14 10:31:56;;;;;;;8.63;7.40;;;;;;;;;;5037438;28;20045;-52
2022/05/14 10:34:45;;;;;;;9.23;6.93;;;;;;;;;;5040506;28;20072;-52
2022/05/14 10:37:16;;;;;;;14.47;8.33;;;;;;;;;;5033697;28;20431;-53
2022/05/14 10:39:44;;;;;;;13.05;9.65;;;;;;;;;;5038446;28;20092;-53
2022/05/14 10:42:15;;;;;;;9.77;8.45;;;;;;;;;;5037402;28;20040;-53
2022/05/14 10:44:51;;;;;;;14.13;10.57;;;;;;;;;;5034255;28;20017;-52
2022/05/14 10:47:16;;;;;;;10.35;8.05;;;;;;;;;;5037462;28;20047;-53
2022/05/14 10:49:56;;;;;;;9.87;7.30;;;;;;;;;;5038068;28;20754;-52
2022/05/14 10:52:22;;;;;;;9.93;7.95;;;;;;;;;;5032159;28;20120;-52
2022/05/14 10:54:47;;;;;;;9.60;7.27;;;;;;;;;;5036560;28;20116;-52
2022/05/14 10:57:18;;;;;;;11.03;7.13;;;;;;;;;;5039208;28;20020;-51
2022/05/14 10:59:45;;;;;;;10.75;7.68;;;;;;;;;;5042695;28;20376;-49
2022/05/14 11:02:13;;;;;;;11.52;7.07;;;;;;;;;;5039857;28;20032;-49
2022/05/14 11:04:38;;;;;;;8.43;6.85;;;;;;;;;;5043387;28;20075;-50
2022/05/14 11:07:05;;;;;;;7.93;6.40;;;;;;;;;;5033858;28;20493;-50
2022/05/14 11:09:30;;;;;;;9.38;6.75;;;;;;;;;;5042001;28;20069;-50
2022/05/14 11:11:56;;;;;;;8.77;6.37;;;;;;;;;;5044479;28;20598;-50
2022/05/14 11:14:21;;;;;;;11.07;7.10;;;;;;;;;;5041866;28;20017;-51
2022/05/14 11:16:48;;;;;;;16.77;10.43;;;;;;;;;;5043573;28;20172;-50
2022/05/14 11:19:27;;;;;;;8.00;6.28;;;;;;;;;;5027394;28;20820;-51
2022/05/14 11:21:52;;;;;;;10.00;5.63;;;;;;;;;;5042591;28;20067;-51
2022/05/14 11:24:17;;;;;;;8.57;6.33;;;;;;;;;;5041779;28;20021;-50
2022/05/14 11:26:52;;;;;;;8.73;6.32;;;;;;;;;;5040176;28;20366;-49
2022/05/14 11:29:24;;;;;;;11.20;6.22;;;;;;;;;;5042463;28;20052;-51
2022/05/14 11:31:51;;;;;;;10.02;6.55;;;;;;;;;;5041153;28;20041;-52
2022/05/14 11:34:21;;;;;;;9.93;6.93;;;;;;;;;;5038647;28;20025;-52
2022/05/14 11:36:48;;;;;;;9.40;6.15;;;;;;;;;;5038176;28;20028;-52
2022/05/14 11:39:20;;;;;;;8.13;6.20;;;;;;;;;;5040823;28;20029;-50
2022/05/14 11:41:45;;;;;;;7.80;6.03;;;;;;;;;;5045216;28;20083;-51
2022/05/14 11:44:10;;;;;;;8.48;6.35;;;;;;;;;;5045401;28;20021;-51
2022/05/14 11:46:48;;;;;;;8.03;6.30;;;;;;;;;;5040514;28;20009;-50
2022/05/14 11:49:20;;;;;;;7.40;6.28;;;;;;;;;;5040715;28;20268;-53
2022/05/14 11:52:00;;;;;;;9.32;6.10;;;;;;;;;;5040087;28;20040;-51
2022/05/14 11:54:27;;;;;;;10.27;6.45;;;;;;;;;;5042771;28;20678;-51
2022/05/14 11:56:59;;;;;;;8.40;6.10;;;;;;;;;;5041718;28;20808;-52
2022/05/14 11:59:34;;;;;;;7.82;5.75;;;;;;;;;;5038315;28;20024;-52
2022/05/14 12:01:59;;;;;;;8.02;5.95;;;;;;;;;;5038458;28;20055;-51
2022/05/14 12:04:36;;;;;;;7.70;5.72;;;;;;;;;;5039077;28;20053;-52
2022/05/14 12:07:01;;;;;;;7.03;5.53;;;;;;;;;;5043418;28;20372;-50
2022/05/14 12:09:33;;;;;;;8.43;5.73;;;;;;;;;;5035086;28;20083;-51
2022/05/14 12:12:09;;;;;;;7.38;5.32;;;;;;;;;;5026673;28;20036;-52
2022/05/14 12:14:35;;;;;;;7.03;5.68;;;;;;;;;;5037126;28;20032;-51
2022/05/14 12:17:01;;;;;;;7.75;5.50;;;;;;;;;;5038334;28;20028;-52
2022/05/14 12:19:27;;;;;;;6.45;5.50;;;;;;;;;;5043048;28;20028;-52
2022/05/14 12:21:54;;;;;;;7.18;5.88;;;;;;;;;;5039015;28;20444;-51
2022/05/14 12:24:20;;;;;;;8.02;5.70;;;;;;;;;;5036737;28;20039;-51
2022/05/14 12:26:45;;;;;;;6.25;5.40;;;;;;;;;;5042013;28;20555;-52
2022/05/14 12:29:15;;;;;;;7.05;5.45;;;;;;;;;;5045662;28;20132;-51
2022/05/14 12:34:37;;;;;;;7.05;4.95;;;;;;;;;;5042938;28;20044;-52
2022/05/14 12:37:03;;;;;;;7.35;4.70;;;;;;;;;;5039905;28;20021;-51
2022/05/14 12:39:30;;;;;;;7.95;5.22;;;;;;;;;;5036223;28;20419;-52
2022/05/14 12:41:59;;;;;;;8.73;5.05;;;;;;;;;;5037046;28;20009;-50
2022/05/14 12:44:32;;;;;;;5.82;4.80;;;;;;;;;;5042121;28;20447;-52
2022/05/14 12:46:58;;;;;;;5.75;4.82;;;;;;;;;;5040897;28;20031;-51
2022/05/14 12:49:28;;;;;;;5.15;4.25;;;;;;;;;;5042854;28;20028;-49
2022/05/14 12:51:57;;;;;;;6.78;4.60;;;;;;;;;;5038364;28;20033;-49
2022/05/14 12:54:26;;;;;;;6.45;4.50;;;;;;;;;;5039376;28;20041;-49
2022/05/14 12:56:52;;;;;;;5.65;4.00;;;;;;;;;;5040289;28;20021;-51
2022/05/14 12:59:18;;;;;;;5.15;4.03;;;;;;;;;;5040534;28;20032;-51
2022/05/14 13:01:43;;;;;;;5.07;3.97;;;;;;;;;;5041522;28;20494;-50
2022/05/14 13:04:08;;;;;;;5.50;3.73;;;;;;;;;;5036529;28;20104;-49
2022/05/14 13:06:34;;;;;;;5.05;3.95;;;;;;;;;;5041302;28;20655;-51
2022/05/14 13:09:05;;;;;;;5.38;3.83;;;;;;;;;;5035774;28;20016;-52
2022/05/14 13:11:30;;;;;;;5.57;3.70;;;;;;;;;;5040472;28;20040;-50
2022/05/14 13:13:59;;;;;;;5.23;3.63;;;;;;;;;;5038193;28;20307;-50
2022/05/14 13:16:25;;;;;;;4.13;3.63;;;;;;;;;;5038787;28;20263;-49
2022/05/14 13:18:57;;;;;;;5.70;3.70;;;;;;;;;;5037475;28;20021;-51
2022/05/14 13:21:45;;;;;;;6.05;3.10;;;;;;;;;;5035048;28;20099;-50
2022/05/14 13:24:22;;;;;;;6.45;2.95;;;;;;;;;;5030691;28;20065;-51
2022/05/14 13:26:48;;;;;;;5.68;3.53;;;;;;;;;;5037118;28;20457;-49
2022/05/14 13:29:13;;;;;;;5.50;3.10;;;;;;;;;;5041768;28;20583;-50
2022/05/14 13:31:40;;;;;;;6.40;4.50;;;;;;;;;;5038792;28;20037;-49
2022/05/14 13:37:08;;;;;;;6.82;2.88;;;;;;;;;;5041801;28;20060;-50
2022/05/14 13:39:44;;;;;;;5.65;2.75;;;;;;;;;;5041720;28;20017;-49
2022/05/14 13:42:10;;;;;;;6.05;2.50;;;;;;;;;;5037923;28;20127;-49
2022/05/14 13:44:35;;;;;;;6.70;2.50;;;;;;;;;;5037540;28;20031;-50
2022/05/14 13:47:01;;;;;;;4.37;2.33;;;;;;;;;;5038168;28;20039;-49
2022/05/14 13:49:27;;;;;;;4.50;2.63;;;;;;;;;;5041116;28;20053;-50
2022/05/14 13:51:54;;;;;;;5.20;2.50;;;;;;;;;;5036240;28;20041;-49
2022/05/14 13:54:34;;;;;;;5.40;2.53;;;;;;;;;;5041241;28;20096;-49
2022/05/14 13:56:59;;;;;;;;;;;;;;;;;;5036902;28;20049;-49
2022/05/14 13:59:27;;;;;;;4.77;2.47;;;;;;;;;;5038000;28;19952;-49
2022/05/14 14:01:54;;;;;;;8.52;2.70;;;;;;;;;;5038744;28;20098;-50
2022/05/14 14:04:27;;;;;;;3.95;2.70;;;;;;;;;;5036287;28;20013;-49
2022/05/14 14:06:59;;;;;;;4.60;2.65;;;;;;;;;;5037202;28;20088;-50
2022/05/14 14:09:24;;;;;;;4.38;2.80;;;;;;;;;;5038806;28;20029;-50
2022/05/14 14:11:49;;;;;;;4.93;2.45;;;;;;;;;;5034198;28;20133;-49
2022/05/14 14:14:15;;;;;;;5.45;3.00;;;;;;;;;;5036617;28;20032;-51
2022/05/14 14:16:40;;;;;;;4.53;2.83;;;;;;;;;;5034383;28;20044;-49
2022/05/14 14:19:06;;;;;;;4.40;2.63;;;;;;;;;;5039508;28;20322;-50
2022/05/14 14:21:31;;;;;;;5.93;3.13;;;;;;;;;;5028447;28;20013;-49
2022/05/14 14:23:57;;;;;;;6.70;3.40;;;;;;;;;;5023462;28;20064;-48
2022/05/14 14:26:22;;;;;;;7.68;3.60;;;;;;;;;;5022745;28;20818;-49
2022/05/14 14:28:47;;;;;;;5.32;3.28;;;;;;;;;;5030546;28;20057;-50
2022/05/14 14:31:17;;;;;;;8.43;3.80;;;;;;;;;;5038514;28;20029;-49
2022/05/14 14:33:42;;;;;;;5.15;3.40;;;;;;;;;;5040361;28;20267;-50
2022/05/14 14:36:07;;;;;;;6.23;3.27;;;;;;;;;;5039762;28;20021;-49
2022/05/14 14:38:33;;;;;;;5.70;3.70;;;;;;;;;;5033729;28;20271;-49
2022/05/14 14:40:58;;;;;;;5.10;3.42;;;;;;;;;;5033296;28;20502;-49
2022/05/14 14:43:23;;;;;;;5.95;3.25;;;;;;;;;;5041310;28;20052;-49
2022/05/14 14:45:49;;;;;;;5.87;3.60;;;;;;;;;;5038138;28;20023;-49
2022/05/14 14:48:14;;;;;;;4.53;3.10;;;;;;;;;;5042638;28;20017;-50
2022/05/14 14:50:40;;;;;;;5.65;3.15;;;;;;;;;;5039968;28;20036;-50
2022/05/14 14:53:05;;;;;;;5.03;2.90;;;;;;;;;;5037880;28;20491;-50
2022/05/14 14:55:31;;;;;;;4.00;3.03;;;;;;;;;;5039756;28;20411;-50
2022/05/14 14:57:56;;;;;;;7.00;3.38;;;;;;;;;;5038304;28;20488;-49
2022/05/14 15:00:22;;;;;;;4.43;3.10;;;;;;;;;;5041402;28;20478;-50
2022/05/14 15:02:50;;;;;;;4.40;3.10;;;;;;;;;;5037363;28;20041;-50